Search for airport 
image banner adimage banner adimage banner ad
image banner ad

85CA - Redwood Coast Medical Services

Located in Gualala, United States

ICAO - 85CA, IATA -

Data provided by Airmate  

General information

Coordinates: N38°46'15" W123°31'46"
Elevation is 172 feet MSL.
Magnetic variation is 16° East
View others Airports in California

Operational data

Special qualification required
Current time UTC:
Current local time:
Weather at : KUKI - Ukiah Muni ( 49 km )
METAR: KUKI 212256Z AUTO 13008KT 10SM CLR 36/02 A3002 RMK AO2 SLP157 T03610022
TAF: KUKI 211739Z 2118/2218 VRB02KT P6SM SKC FM212100 14007KT P6SM SKC TEMPO 2200/2203 20009G18KT FM220300 VRB02KT P6SM SKC
View NOTAMs / SUP AIP / TFR affecting this airport [VIEW]
Communications frequencies: [VIEW]

Runways:

Airport contact information

Address: Gualala United States

Satellite view of 85CA